createdAt,value
2023-04-16T00:00:46.104Z,1014.70
2023-04-16T00:01:46.144Z,1014.68
2023-04-16T00:02:46.324Z,1014.68
2023-04-16T00:03:46.312Z,1014.66
2023-04-16T00:04:46.049Z,1014.67
2023-04-16T00:05:46.011Z,1014.67
2023-04-16T00:06:46.043Z,1014.67
2023-04-16T00:07:46.967Z,1014.69
2023-04-16T00:08:46.007Z,1014.71
2023-04-16T00:09:46.142Z,1014.71
2023-04-16T00:10:46.820Z,1014.72
2023-04-16T00:11:45.949Z,1014.74
2023-04-16T00:12:46.403Z,1014.70
2023-04-16T00:13:46.042Z,1014.69
2023-04-16T00:14:45.910Z,1014.70
2023-04-16T00:15:45.929Z,1014.71
2023-04-16T00:16:45.973Z,1014.70
2023-04-16T00:17:45.906Z,1014.72
2023-04-16T00:18:45.886Z,1014.70
2023-04-16T00:19:45.925Z,1014.72
2023-04-16T00:20:45.872Z,1014.72
2023-04-16T00:21:45.859Z,1014.77
2023-04-16T00:22:45.810Z,1014.75
2023-04-16T00:23:45.819Z,1014.77
2023-04-16T00:24:45.778Z,1014.78
2023-04-16T00:25:45.798Z,1014.79
2023-04-16T00:26:45.820Z,1014.79
2023-04-16T00:27:45.780Z,1014.78
2023-04-16T00:28:45.735Z,1014.78
2023-04-16T00:29:45.770Z,1014.79
2023-04-16T00:30:45.770Z,1014.78
2023-04-16T00:31:45.731Z,1014.82
2023-04-16T00:32:45.779Z,1014.80
2023-04-16T00:33:45.742Z,1014.82
2023-04-16T00:34:45.710Z,1014.83
2023-04-16T00:35:45.728Z,1014.83
2023-04-16T00:36:45.756Z,1014.86
2023-04-16T00:37:45.652Z,1014.86
2023-04-16T00:38:45.639Z,1014.86
2023-04-16T00:39:45.667Z,1014.87
2023-04-16T00:40:45.649Z,1014.86
2023-04-16T00:41:45.626Z,1014.85
2023-04-16T00:42:45.595Z,1014.84
2023-04-16T00:43:45.621Z,1014.86
2023-04-16T00:44:45.602Z,1014.83
2023-04-16T00:45:45.654Z,1014.84
2023-04-16T00:46:45.603Z,1014.83
2023-04-16T00:47:45.608Z,1014.84
2023-04-16T00:48:45.562Z,1014.83
2023-04-16T00:49:45.576Z,1014.83
2023-04-16T00:50:45.537Z,1014.84
2023-04-16T00:51:45.507Z,1014.84
2023-04-16T00:52:45.466Z,1014.84
2023-04-16T00:53:45.506Z,1014.84
2023-04-16T00:54:45.493Z,1014.84
2023-04-16T00:55:45.476Z,1014.85
2023-04-16T00:56:45.446Z,1014.83
2023-04-16T00:57:45.492Z,1014.82
2023-04-16T00:58:45.458Z,1014.82
2023-04-16T00:59:45.445Z,1014.82
2023-04-16T01:00:45.402Z,1014.82
2023-04-16T01:01:45.462Z,1014.83
2023-04-16T01:02:45.459Z,1014.82
2023-04-16T01:03:45.471Z,1014.82
2023-04-16T01:04:45.382Z,1014.84
2023-04-16T01:05:45.370Z,1014.86
2023-04-16T01:06:45.352Z,1014.86
2023-04-16T01:07:45.316Z,1014.86
2023-04-16T01:08:45.348Z,1014.89
2023-04-16T01:09:45.410Z,1014.90
2023-04-16T01:10:45.298Z,1014.91
2023-04-16T01:11:45.277Z,1014.90
2023-04-16T01:12:45.337Z,1014.89
2023-04-16T01:13:45.323Z,1014.90
2023-04-16T01:14:45.238Z,1014.91
2023-04-16T01:15:45.372Z,1014.89
2023-04-16T01:16:45.272Z,1014.91
2023-04-16T01:17:45.305Z,1014.88
2023-04-16T01:18:45.213Z,1014.88
2023-04-16T01:19:45.213Z,1014.89
2023-04-16T01:20:45.241Z,1014.91
2023-04-16T01:21:45.219Z,1014.93
2023-04-16T01:22:45.222Z,1014.94
2023-04-16T01:23:45.163Z,1014.95
2023-04-16T01:24:45.168Z,1014.97
2023-04-16T01:25:45.187Z,1014.99
2023-04-16T01:26:45.161Z,1015.00
2023-04-16T01:27:45.148Z,1015.00
2023-04-16T01:28:45.125Z,1015.00
2023-04-16T01:29:45.168Z,1015.01
2023-04-16T01:30:45.162Z,1015.06
2023-04-16T01:31:45.232Z,1015.05
2023-04-16T01:32:45.109Z,1015.07
2023-04-16T01:33:45.077Z,1015.10
2023-04-16T01:34:45.036Z,1015.12
2023-04-16T01:35:45.063Z,1015.14
2023-04-16T01:36:45.015Z,1015.15
2023-04-16T01:37:45.016Z,1015.12
2023-04-16T01:38:45.004Z,1015.15
2023-04-16T01:39:45.025Z,1015.16
2023-04-16T01:40:44.956Z,1015.17
2023-04-16T01:41:44.985Z,1015.17
2023-04-16T01:42:44.972Z,1015.17
2023-04-16T01:43:45.006Z,1015.17
2023-04-16T01:44:44.917Z,1015.17
2023-04-16T01:45:44.958Z,1015.16
2023-04-16T01:46:44.996Z,1015.17
2023-04-16T01:47:44.942Z,1015.18
2023-04-16T01:48:44.935Z,1015.18
2023-04-16T01:49:44.896Z,1015.17
2023-04-16T01:50:44.863Z,1015.17
2023-04-16T01:51:44.865Z,1015.19
2023-04-16T01:52:44.859Z,1015.17
2023-04-16T01:53:44.894Z,1015.18
2023-04-16T01:54:44.913Z,1015.20
2023-04-16T01:55:44.823Z,1015.20
2023-04-16T01:56:44.792Z,1015.18
2023-04-16T01:57:44.816Z,1015.17
2023-04-16T01:58:44.840Z,1015.21
2023-04-16T01:59:44.764Z,1015.17
2023-04-16T02:00:44.768Z,1015.18
2023-04-16T02:01:44.830Z,1015.17
2023-04-16T02:02:44.851Z,1015.17
2023-04-16T02:03:45.028Z,1015.15
2023-04-16T02:04:44.723Z,1015.15
2023-04-16T02:05:44.721Z,1015.15
2023-04-16T02:06:44.698Z,1015.14
2023-04-16T02:07:44.743Z,1015.15
2023-04-16T02:08:44.681Z,1015.14
2023-04-16T02:09:44.708Z,1015.14
2023-04-16T02:10:44.663Z,1015.14
2023-04-16T02:11:44.637Z,1015.14
2023-04-16T02:12:44.642Z,1015.16
2023-04-16T02:13:44.645Z,1015.16
2023-04-16T02:14:44.640Z,1015.16
2023-04-16T02:15:44.686Z,1015.16
2023-04-16T02:16:44.665Z,1015.16
2023-04-16T02:17:44.618Z,1015.17
2023-04-16T02:18:44.580Z,1015.16
2023-04-16T02:19:44.556Z,1015.16
2023-04-16T02:20:44.587Z,1015.15
2023-04-16T02:21:44.560Z,1015.14
2023-04-16T02:22:44.514Z,1015.15
2023-04-16T02:23:44.537Z,1015.13
2023-04-16T02:24:44.523Z,1015.14
2023-04-16T02:25:44.489Z,1015.13
2023-04-16T02:26:44.469Z,1015.14
2023-04-16T02:27:44.485Z,1015.12
2023-04-16T02:28:44.449Z,1015.13
2023-04-16T02:29:44.498Z,1015.12
2023-04-16T02:30:44.445Z,1015.11
2023-04-16T02:31:44.586Z,1015.12
2023-04-16T02:32:44.404Z,1015.11
2023-04-16T02:33:44.410Z,1015.12
2023-04-16T02:34:44.406Z,1015.13
2023-04-16T02:35:44.371Z,1015.13
2023-04-16T02:36:44.365Z,1015.13
2023-04-16T02:37:44.416Z,1015.15
2023-04-16T02:38:44.363Z,1015.15
2023-04-16T02:39:44.392Z,1015.15
2023-04-16T02:40:44.330Z,1015.16
2023-04-16T02:41:44.305Z,1015.16
2023-04-16T02:42:44.364Z,1015.16
2023-04-16T02:43:44.350Z,1015.14
2023-04-16T02:44:44.283Z,1015.16
2023-04-16T02:45:44.360Z,1015.15
2023-04-16T02:46:44.282Z,1015.15
2023-04-16T02:47:44.306Z,1015.15
2023-04-16T02:48:44.280Z,1015.14
2023-04-16T02:49:45.012Z,1015.14
2023-04-16T02:50:44.229Z,1015.14
2023-04-16T02:51:44.243Z,1015.13
2023-04-16T02:52:44.215Z,1015.16
2023-04-16T02:53:44.177Z,1015.14
2023-04-16T02:54:44.169Z,1015.16
2023-04-16T02:55:44.154Z,1015.16
2023-04-16T02:56:44.186Z,1015.18
2023-04-16T02:57:44.168Z,1015.16
2023-04-16T02:58:44.119Z,1015.15
2023-04-16T02:59:44.127Z,1015.14
2023-04-16T03:00:44.150Z,1015.15
2023-04-16T03:01:44.182Z,1015.14
2023-04-16T03:02:44.132Z,1015.15
2023-04-16T03:03:44.091Z,1015.14
2023-04-16T03:04:44.107Z,1015.14
2023-04-16T03:05:44.053Z,1015.16
2023-04-16T03:06:44.106Z,1015.16
2023-04-16T03:07:44.048Z,1015.15
2023-04-16T03:08:44.023Z,1015.15
2023-04-16T03:09:44.037Z,1015.16
2023-04-16T03:10:43.993Z,1015.16
2023-04-16T03:11:44.008Z,1015.17
2023-04-16T03:12:44.031Z,1015.16
2023-04-16T03:13:44.015Z,1015.18
2023-04-16T03:14:43.976Z,1015.17
2023-04-16T03:15:43.991Z,1015.21
2023-04-16T03:16:43.976Z,1015.22
2023-04-16T03:17:44.014Z,1015.20
2023-04-16T03:18:43.935Z,1015.22
2023-04-16T03:19:43.938Z,1015.21
2023-04-16T03:20:43.914Z,1015.22
2023-04-16T03:21:43.894Z,1015.22
2023-04-16T03:22:43.895Z,1015.22
2023-04-16T03:23:43.933Z,1015.23
2023-04-16T03:24:43.859Z,1015.22
2023-04-16T03:25:43.879Z,1015.21
2023-04-16T03:26:43.821Z,1015.21
2023-04-16T03:27:43.838Z,1015.21
2023-04-16T03:28:43.807Z,1015.23
2023-04-16T03:29:43.919Z,1015.22
2023-04-16T03:30:43.815Z,1015.23
2023-04-16T03:31:43.855Z,1015.23
2023-04-16T03:32:43.864Z,1015.22
2023-04-16T03:33:43.766Z,1015.23
2023-04-16T03:34:43.796Z,1015.24
2023-04-16T03:35:43.799Z,1015.23
2023-04-16T03:36:43.747Z,1015.23
2023-04-16T03:37:43.744Z,1015.24
2023-04-16T03:38:43.750Z,1015.24
2023-04-16T03:39:43.727Z,1015.24
2023-04-16T03:40:43.703Z,1015.24
2023-04-16T03:41:43.706Z,1015.26
2023-04-16T03:42:43.679Z,1015.27
2023-04-16T03:43:43.705Z,1015.26
2023-04-16T03:44:43.672Z,1015.27
2023-04-16T03:45:43.631Z,1015.25
2023-04-16T03:46:43.657Z,1015.25
2023-04-16T03:47:43.725Z,1015.26
2023-04-16T03:48:43.626Z,1015.27
2023-04-16T03:49:43.604Z,1015.26
2023-04-16T03:50:43.628Z,1015.27
2023-04-16T03:51:43.569Z,1015.25
2023-04-16T03:52:43.618Z,1015.26
2023-04-16T03:53:43.560Z,1015.27
2023-04-16T03:54:43.602Z,1015.28
2023-04-16T03:55:43.530Z,1015.26
2023-04-16T03:56:43.481Z,1015.28
2023-04-16T03:57:43.495Z,1015.26
2023-04-16T03:58:43.494Z,1015.26
2023-04-16T03:59:43.531Z,1015.25
2023-04-16T04:00:43.475Z,1015.26
2023-04-16T04:01:43.508Z,1015.28
2023-04-16T04:02:43.693Z,1015.28
2023-04-16T04:03:43.652Z,1015.27
2023-04-16T04:04:43.580Z,1015.28
2023-04-16T04:05:43.453Z,1015.28
2023-04-16T04:06:43.419Z,1015.27
2023-04-16T04:07:43.347Z,1015.26
2023-04-16T04:08:43.352Z,1015.26
2023-04-16T04:09:43.321Z,1015.27
2023-04-16T04:10:43.441Z,1015.26
2023-04-16T04:11:43.348Z,1015.25
2023-04-16T04:12:43.274Z,1015.25
2023-04-16T04:13:43.305Z,1015.27
2023-04-16T04:14:43.552Z,1015.29
2023-04-16T04:15:43.272Z,1015.30
2023-04-16T04:16:43.289Z,1015.31
2023-04-16T04:17:43.346Z,1015.32
2023-04-16T04:18:44.444Z,1015.32
2023-04-16T04:19:54.378Z,1015.31
2023-04-16T04:20:43.221Z,1015.31
2023-04-16T04:21:43.192Z,1015.32
2023-04-16T04:22:43.168Z,1015.32
2023-04-16T04:23:43.193Z,1015.34
2023-04-16T04:24:43.185Z,1015.35
2023-04-16T04:25:43.411Z,1015.36
2023-04-16T04:26:43.147Z,1015.38
2023-04-16T04:27:43.132Z,1015.38
2023-04-16T04:28:43.148Z,1015.38
2023-04-16T04:29:43.136Z,1015.39
2023-04-16T04:30:43.118Z,1015.39
2023-04-16T04:31:43.169Z,1015.38
2023-04-16T04:32:43.170Z,1015.39
2023-04-16T04:33:43.124Z,1015.39
2023-04-16T04:34:43.106Z,1015.41
2023-04-16T04:35:43.106Z,1015.43
2023-04-16T04:36:43.033Z,1015.43
2023-04-16T04:37:43.079Z,1015.44
2023-04-16T04:38:43.077Z,1015.45
2023-04-16T04:39:43.004Z,1015.46
2023-04-16T04:40:43.056Z,1015.46
2023-04-16T04:41:42.962Z,1015.46
2023-04-16T04:42:43.022Z,1015.48
2023-04-16T04:43:43.002Z,1015.48
2023-04-16T04:44:42.969Z,1015.48
2023-04-16T04:45:43.028Z,1015.47
2023-04-16T04:46:42.980Z,1015.49
2023-04-16T04:47:42.948Z,1015.48
2023-04-16T04:48:42.953Z,1015.47
2023-04-16T04:49:42.907Z,1015.50
2023-04-16T04:50:42.889Z,1015.51
2023-04-16T04:51:42.912Z,1015.53
2023-04-16T04:52:42.942Z,1015.54
2023-04-16T04:53:42.867Z,1015.55
2023-04-16T04:54:42.841Z,1015.57
2023-04-16T04:55:42.853Z,1015.60
2023-04-16T04:56:42.808Z,1015.60
2023-04-16T04:57:42.846Z,1015.59
2023-04-16T04:58:42.812Z,1015.60
2023-04-16T04:59:42.789Z,1015.61
2023-04-16T05:00:42.812Z,1015.62
2023-04-16T05:01:42.744Z,1015.65
2023-04-16T05:02:43.097Z,1015.67
2023-04-16T05:03:42.814Z,1015.67
2023-04-16T05:04:42.767Z,1015.67
2023-04-16T05:05:42.733Z,1015.69
2023-04-16T05:06:42.716Z,1015.70
2023-04-16T05:07:42.721Z,1015.70
2023-04-16T05:08:42.686Z,1015.72
2023-04-16T05:09:42.702Z,1015.75
2023-04-16T05:10:42.690Z,1015.74
2023-04-16T05:11:42.638Z,1015.75
2023-04-16T05:12:43.055Z,1015.76
2023-04-16T05:13:42.633Z,1015.77
2023-04-16T05:14:42.675Z,1015.77
2023-04-16T05:15:42.603Z,1015.79
2023-04-16T05:16:42.644Z,1015.80
2023-04-16T05:17:42.698Z,1015.81
2023-04-16T05:18:42.589Z,1015.82
2023-04-16T05:19:42.569Z,1015.80
2023-04-16T05:20:42.644Z,1015.81
2023-04-16T05:21:42.567Z,1015.82
2023-04-16T05:22:42.632Z,1015.79
2023-04-16T05:23:42.517Z,1015.82
2023-04-16T05:24:42.520Z,1015.85
2023-04-16T05:25:42.530Z,1015.85
2023-04-16T05:26:42.548Z,1015.87
2023-04-16T05:27:42.485Z,1015.88
2023-04-16T05:28:42.544Z,1015.89
2023-04-16T05:29:42.503Z,1015.91
2023-04-16T05:30:42.531Z,1015.92
2023-04-16T05:31:42.427Z,1015.93
2023-04-16T05:32:42.509Z,1015.95
2023-04-16T05:33:42.444Z,1015.96
2023-04-16T05:34:42.418Z,1015.99
2023-04-16T05:35:42.436Z,1015.98
2023-04-16T05:36:42.381Z,1015.99
2023-04-16T05:37:42.362Z,1016.03
2023-04-16T05:38:42.364Z,1016.04
2023-04-16T05:39:42.435Z,1016.04
2023-04-16T05:40:42.368Z,1016.06
2023-04-16T05:41:42.324Z,1016.08
2023-04-16T05:42:42.332Z,1016.09
2023-04-16T05:43:42.502Z,1016.11
2023-04-16T05:44:42.329Z,1016.12
2023-04-16T05:45:42.296Z,1016.12
2023-04-16T05:46:42.282Z,1016.13
2023-04-16T05:47:42.380Z,1016.13
2023-04-16T05:48:42.301Z,1016.16
2023-04-16T05:49:42.263Z,1016.18
2023-04-16T05:50:42.251Z,1016.17
2023-04-16T05:51:42.210Z,1016.19
2023-04-16T05:52:42.344Z,1016.18
2023-04-16T05:53:42.249Z,1016.19
2023-04-16T05:54:42.268Z,1016.20
2023-04-16T05:55:42.244Z,1016.20
2023-04-16T05:56:42.198Z,1016.22
2023-04-16T05:57:42.186Z,1016.22
2023-04-16T05:58:42.194Z,1016.23
2023-04-16T05:59:42.149Z,1016.25
2023-04-16T06:00:42.187Z,1016.27
2023-04-16T06:01:42.123Z,1016.28
2023-04-16T06:02:42.384Z,1016.29
2023-04-16T06:03:42.233Z,1016.30
2023-04-16T06:04:42.084Z,1016.32
2023-04-16T06:05:42.171Z,1016.33
2023-04-16T06:06:42.063Z,1016.35
2023-04-16T06:07:42.090Z,1016.35
2023-04-16T06:08:42.023Z,1016.35
2023-04-16T06:09:42.045Z,1016.35
2023-04-16T06:10:42.035Z,1016.35
2023-04-16T06:11:42.042Z,1016.35
2023-04-16T06:12:42.004Z,1016.37
2023-04-16T06:13:41.987Z,1016.36
2023-04-16T06:14:42.017Z,1016.36
2023-04-16T06:15:41.968Z,1016.37
2023-04-16T06:16:41.976Z,1016.35
2023-04-16T06:17:41.976Z,1016.36
2023-04-16T06:18:41.932Z,1016.36
2023-04-16T06:19:41.917Z,1016.36
2023-04-16T06:20:41.921Z,1016.35
2023-04-16T06:21:41.916Z,1016.36
2023-04-16T06:22:41.904Z,1016.39
2023-04-16T06:23:41.862Z,1016.40
2023-04-16T06:24:41.869Z,1016.41
2023-04-16T06:25:41.866Z,1016.41
2023-04-16T06:26:41.834Z,1016.42
2023-04-16T06:27:41.899Z,1016.43
2023-04-16T06:28:41.804Z,1016.44
2023-04-16T06:29:42.065Z,1016.44
2023-04-16T06:30:43.369Z,1016.44
2023-04-16T06:31:41.819Z,1016.45
2023-04-16T06:32:41.870Z,1016.45
2023-04-16T06:33:41.746Z,1016.46
2023-04-16T06:34:41.772Z,1016.47
2023-04-16T06:35:41.742Z,1016.47
2023-04-16T06:36:41.738Z,1016.47
2023-04-16T06:37:41.741Z,1016.48
2023-04-16T06:38:41.710Z,1016.49
2023-04-16T06:39:41.696Z,1016.51
2023-04-16T06:40:41.677Z,1016.54
2023-04-16T06:41:41.748Z,1016.58
2023-04-16T06:42:43.540Z,1016.57
2023-04-16T06:43:41.637Z,1016.59
2023-04-16T06:44:41.719Z,1016.61
2023-04-16T06:45:41.662Z,1016.63
2023-04-16T06:46:41.628Z,1016.65
2023-04-16T06:47:41.676Z,1016.66
2023-04-16T06:48:41.628Z,1016.67
2023-04-16T06:49:41.590Z,1016.68
2023-04-16T06:50:41.572Z,1016.70
2023-04-16T06:51:41.562Z,1016.70
2023-04-16T06:52:42.327Z,1016.72
2023-04-16T06:53:41.596Z,1016.73
2023-04-16T06:54:41.571Z,1016.74
2023-04-16T06:55:41.502Z,1016.74
2023-04-16T06:56:41.510Z,1016.78
2023-04-16T06:57:41.552Z,1016.79
2023-04-16T06:58:41.500Z,1016.78
2023-04-16T06:59:41.476Z,1016.78
2023-04-16T07:00:41.537Z,1016.78
2023-04-16T07:01:41.496Z,1016.80
2023-04-16T07:02:41.530Z,1016.80
2023-04-16T07:03:41.531Z,1016.81
2023-04-16T07:04:41.489Z,1016.81
2023-04-16T07:05:41.405Z,1016.84
2023-04-16T07:06:41.421Z,1016.82
2023-04-16T07:07:41.408Z,1016.82
2023-04-16T07:08:41.418Z,1016.83
2023-04-16T07:09:41.388Z,1016.83
2023-04-16T07:10:41.391Z,1016.83
2023-04-16T07:11:41.392Z,1016.84
2023-04-16T07:12:41.359Z,1016.85
2023-04-16T07:13:41.343Z,1016.82
2023-04-16T07:14:41.307Z,1016.85
2023-04-16T07:15:41.302Z,1016.85
2023-04-16T07:16:41.395Z,1016.84
2023-04-16T07:17:41.333Z,1016.84
2023-04-16T07:18:41.312Z,1016.84
2023-04-16T07:19:41.255Z,1016.85
2023-04-16T07:20:41.323Z,1016.85
2023-04-16T07:21:41.267Z,1016.86
2023-04-16T07:22:41.268Z,1016.87
2023-04-16T07:23:41.273Z,1016.87
2023-04-16T07:24:41.305Z,1016.89
2023-04-16T07:25:41.225Z,1016.90
2023-04-16T07:26:41.222Z,1016.91
2023-04-16T07:27:41.214Z,1016.90
2023-04-16T07:28:41.216Z,1016.90
2023-04-16T07:29:41.157Z,1016.91
2023-04-16T07:30:41.196Z,1016.91
2023-04-16T07:31:41.160Z,1016.93
2023-04-16T07:32:41.178Z,1016.92
2023-04-16T07:33:41.124Z,1016.94
2023-04-16T07:34:41.123Z,1016.95
2023-04-16T07:35:41.127Z,1016.95
2023-04-16T07:36:41.119Z,1016.96
2023-04-16T07:37:41.085Z,1016.96
2023-04-16T07:38:41.117Z,1017.00
2023-04-16T07:39:41.086Z,1017.01
2023-04-16T07:40:41.054Z,1017.02
2023-04-16T07:41:41.140Z,1017.02
2023-04-16T07:42:41.045Z,1017.01
2023-04-16T07:43:41.014Z,1017.02
2023-04-16T07:44:41.077Z,1017.04
2023-04-16T07:45:41.474Z,1017.06
2023-04-16T07:46:46.907Z,1017.06
2023-04-16T07:47:41.031Z,1017.07
2023-04-16T07:48:41.006Z,1017.09
2023-04-16T07:49:40.936Z,1017.11
2023-04-16T07:50:40.977Z,1017.11
2023-04-16T07:51:40.930Z,1017.09
2023-04-16T07:52:40.920Z,1017.11
2023-04-16T07:53:40.954Z,1017.11
2023-04-16T07:54:40.961Z,1017.12
2023-04-16T07:55:40.887Z,1017.14
2023-04-16T07:56:40.946Z,1017.13
2023-04-16T07:57:40.860Z,1017.14
2023-04-16T07:58:41.002Z,1017.17
2023-04-16T07:59:40.864Z,1017.19
2023-04-16T08:00:40.857Z,1017.20
2023-04-16T08:01:40.812Z,1017.20
2023-04-16T08:02:40.978Z,1017.25
2023-04-16T08:03:40.999Z,1017.24
2023-04-16T08:04:40.958Z,1017.26
2023-04-16T08:05:40.777Z,1017.26
2023-04-16T08:06:40.774Z,1017.27
2023-04-16T08:07:40.809Z,1017.28
2023-04-16T08:08:40.790Z,1017.29
2023-04-16T08:09:40.760Z,1017.26
2023-04-16T08:10:40.749Z,1017.27
2023-04-16T08:11:40.715Z,1017.25
2023-04-16T08:12:40.748Z,1017.28
2023-04-16T08:13:40.729Z,1017.27
2023-04-16T08:14:40.697Z,1017.26
2023-04-16T08:15:40.740Z,1017.29
2023-04-16T08:16:40.726Z,1017.32
2023-04-16T08:17:40.742Z,1017.34
2023-04-16T08:18:40.689Z,1017.35
2023-04-16T08:19:40.644Z,1017.36
2023-04-16T08:20:40.666Z,1017.36
2023-04-16T08:21:40.675Z,1017.36
2023-04-16T08:22:40.605Z,1017.39
2023-04-16T08:23:40.590Z,1017.39
2023-04-16T08:24:40.597Z,1017.41
2023-04-16T08:25:40.572Z,1017.44
2023-04-16T08:26:40.584Z,1017.45
2023-04-16T08:27:40.575Z,1017.45
2023-04-16T08:28:40.555Z,1017.46
2023-04-16T08:29:40.544Z,1017.45
2023-04-16T08:30:40.591Z,1017.46
2023-04-16T08:31:40.557Z,1017.47
2023-04-16T08:32:40.575Z,1017.49
2023-04-16T08:33:40.501Z,1017.47
2023-04-16T08:34:40.480Z,1017.49
2023-04-16T08:35:40.466Z,1017.49
2023-04-16T08:36:40.475Z,1017.49
2023-04-16T08:37:40.444Z,1017.50
2023-04-16T08:38:40.432Z,1017.52
2023-04-16T08:39:40.466Z,1017.54
2023-04-16T08:40:40.450Z,1017.54
2023-04-16T08:41:40.452Z,1017.55
2023-04-16T08:42:40.514Z,1017.56
2023-04-16T08:43:40.362Z,1017.57
2023-04-16T08:44:40.406Z,1017.60
2023-04-16T08:45:40.377Z,1017.60
2023-04-16T08:46:40.466Z,1017.62
2023-04-16T08:47:40.389Z,1017.62
2023-04-16T08:48:40.387Z,1017.62
2023-04-16T08:49:40.428Z,1017.63
2023-04-16T08:50:40.740Z,1017.66
2023-04-16T08:51:40.296Z,1017.68
2023-04-16T08:52:40.329Z,1017.68
2023-04-16T08:53:40.280Z,1017.69
2023-04-16T08:54:40.302Z,1017.70
2023-04-16T08:55:40.275Z,1017.73
2023-04-16T08:56:42.882Z,1017.73
2023-04-16T08:57:40.257Z,1017.74
2023-04-16T08:58:40.211Z,1017.75
2023-04-16T08:59:40.251Z,1017.74
2023-04-16T09:00:40.207Z,1017.74
2023-04-16T09:01:40.258Z,1017.76
2023-04-16T09:02:40.578Z,1017.77
2023-04-16T09:03:40.257Z,1017.77
2023-04-16T09:04:40.306Z,1017.79
2023-04-16T09:05:40.180Z,1017.80
2023-04-16T09:06:40.279Z,1017.79
2023-04-16T09:07:40.190Z,1017.80
2023-04-16T09:08:40.149Z,1017.81
2023-04-16T09:09:40.135Z,1017.83
2023-04-16T09:10:40.173Z,1017.83
2023-04-16T09:11:40.099Z,1017.84
2023-04-16T09:12:40.088Z,1017.83
2023-04-16T09:13:40.098Z,1017.83
2023-04-16T09:14:40.051Z,1017.82
2023-04-16T09:15:40.085Z,1017.81
2023-04-16T09:16:40.235Z,1017.79
2023-04-16T09:17:40.215Z,1017.79
2023-04-16T09:18:40.022Z,1017.82
2023-04-16T09:19:40.035Z,1017.81
2023-04-16T09:20:40.029Z,1017.80
2023-04-16T09:21:40.034Z,1017.80
2023-04-16T09:22:40.016Z,1017.79
2023-04-16T09:23:39.987Z,1017.79
2023-04-16T09:24:39.962Z,1017.80
2023-04-16T09:25:39.946Z,1017.82
2023-04-16T09:26:39.970Z,1017.81
2023-04-16T09:27:39.943Z,1017.83
2023-04-16T09:28:39.947Z,1017.82
2023-04-16T09:29:39.907Z,1017.82
2023-04-16T09:30:39.895Z,1017.80
2023-04-16T09:31:40.006Z,1017.83
2023-04-16T09:32:39.932Z,1017.83
2023-04-16T09:33:39.901Z,1017.83
2023-04-16T09:34:39.847Z,1017.85
2023-04-16T09:35:39.883Z,1017.83
2023-04-16T09:36:39.827Z,1017.87
2023-04-16T09:37:39.861Z,1017.89
2023-04-16T09:38:39.810Z,1017.90
2023-04-16T09:39:39.854Z,1017.92
2023-04-16T09:40:39.791Z,1017.93
2023-04-16T09:41:39.856Z,1017.96
2023-04-16T09:42:39.960Z,1017.96
2023-04-16T09:43:39.781Z,1017.96
2023-04-16T09:44:39.741Z,1017.95
2023-04-16T09:45:39.794Z,1017.96
2023-04-16T09:46:39.772Z,1017.98
2023-04-16T09:47:39.859Z,1017.99
2023-04-16T09:48:39.726Z,1017.98
2023-04-16T09:49:39.701Z,1017.98
2023-04-16T09:50:39.709Z,1017.98
2023-04-16T09:51:39.700Z,1017.99
2023-04-16T09:52:39.730Z,1018.00
2023-04-16T09:53:39.663Z,1018.00
2023-04-16T09:54:39.681Z,1017.99
2023-04-16T09:55:39.668Z,1017.99
2023-04-16T09:56:39.613Z,1018.00
2023-04-16T09:57:39.648Z,1018.00
2023-04-16T09:58:39.608Z,1017.99
2023-04-16T09:59:39.578Z,1017.99
2023-04-16T10:00:43.225Z,1018.03
2023-04-16T10:01:39.607Z,1018.00
2023-04-16T10:02:39.786Z,1018.03
2023-04-16T10:03:40.039Z,1018.01
2023-04-16T10:04:39.604Z,1018.00
2023-04-16T10:05:39.533Z,1018.00
2023-04-16T10:06:39.560Z,1018.02
2023-04-16T10:07:39.512Z,1018.04
2023-04-16T10:08:39.553Z,1018.04
2023-04-16T10:09:39.503Z,1018.06
2023-04-16T10:10:39.469Z,1018.08
2023-04-16T10:11:39.490Z,1018.08
2023-04-16T10:12:39.480Z,1018.09
2023-04-16T10:13:39.452Z,1018.10
2023-04-16T10:14:39.485Z,1018.11
2023-04-16T10:15:39.459Z,1018.12
2023-04-16T10:16:39.526Z,1018.12
2023-04-16T10:17:39.484Z,1018.11
2023-04-16T10:18:39.380Z,1018.12
2023-04-16T10:19:39.392Z,1018.11
2023-04-16T10:20:39.476Z,1018.12
2023-04-16T10:21:39.391Z,1018.11
2023-04-16T10:22:39.357Z,1018.10
2023-04-16T10:23:39.355Z,1018.09
2023-04-16T10:24:39.357Z,1018.08
2023-04-16T10:25:39.356Z,1018.09
2023-04-16T10:26:39.304Z,1018.09
2023-04-16T10:27:39.321Z,1018.08
2023-04-16T10:28:39.320Z,1018.08
2023-04-16T10:29:39.329Z,1018.08
2023-04-16T10:30:39.288Z,1018.08
2023-04-16T10:31:39.263Z,1018.09
2023-04-16T10:32:39.242Z,1018.14
2023-04-16T10:33:39.262Z,1018.14
2023-04-16T10:34:39.225Z,1018.13
2023-04-16T10:35:39.276Z,1018.13
2023-04-16T10:36:39.188Z,1018.14
2023-04-16T10:37:39.250Z,1018.13
2023-04-16T10:38:39.187Z,1018.11
2023-04-16T10:39:39.212Z,1018.10
2023-04-16T10:40:39.168Z,1018.09
2023-04-16T10:41:39.187Z,1018.10
2023-04-16T10:42:39.170Z,1018.10
2023-04-16T10:43:39.173Z,1018.09
2023-04-16T10:44:39.110Z,1018.07
2023-04-16T10:45:39.125Z,1018.08
2023-04-16T10:46:39.257Z,1018.07
2023-04-16T10:47:39.183Z,1018.06
2023-04-16T10:48:49.251Z,1018.05
2023-04-16T10:49:39.099Z,1018.04
2023-04-16T10:50:39.050Z,1018.03
2023-04-16T10:51:39.075Z,1018.02
2023-04-16T10:52:40.260Z,1018.00
2023-04-16T10:53:39.039Z,1017.99
2023-04-16T10:54:38.998Z,1017.98
2023-04-16T10:55:38.998Z,1018.00
2023-04-16T10:56:39.005Z,1017.96
2023-04-16T10:57:39.016Z,1017.98
2023-04-16T10:58:38.990Z,1017.99
2023-04-16T10:59:38.960Z,1017.98
2023-04-16T11:00:38.931Z,1017.97
2023-04-16T11:01:38.978Z,1017.97
2023-04-16T11:02:39.057Z,1017.96
2023-04-16T11:03:39.029Z,1017.94
2023-04-16T11:04:39.073Z,1017.96
2023-04-16T11:05:38.943Z,1017.95
2023-04-16T11:06:38.900Z,1017.94
2023-04-16T11:07:38.901Z,1017.93
2023-04-16T11:08:51.197Z,1017.95
2023-04-16T11:09:38.880Z,1017.94
2023-04-16T11:10:38.853Z,1017.97
2023-04-16T11:11:38.860Z,1017.96
2023-04-16T11:12:38.825Z,1017.97
2023-04-16T11:13:38.813Z,1017.94
2023-04-16T11:14:38.779Z,1017.95
2023-04-16T11:15:39.604Z,1017.96
2023-04-16T11:16:38.812Z,1017.96
2023-04-16T11:17:38.794Z,1017.95
2023-04-16T11:18:38.750Z,1017.95
2023-04-16T11:19:38.756Z,1017.95
2023-04-16T11:20:38.789Z,1017.93
2023-04-16T11:21:38.728Z,1017.92
2023-04-16T11:22:38.770Z,1017.91
2023-04-16T11:23:38.684Z,1017.94
2023-04-16T11:24:38.733Z,1017.98
2023-04-16T11:25:39.495Z,1017.93
2023-04-16T11:26:38.691Z,1017.94
2023-04-16T11:27:38.707Z,1017.93
2023-04-16T11:28:38.646Z,1017.95
2023-04-16T11:29:38.657Z,1017.93
2023-04-16T11:30:38.644Z,1017.94
2023-04-16T11:31:38.663Z,1017.98
2023-04-16T11:32:38.618Z,1017.93
2023-04-16T11:33:38.603Z,1017.94
2023-04-16T11:34:38.578Z,1017.93
2023-04-16T11:35:38.632Z,1017.93
2023-04-16T11:36:38.557Z,1017.96
2023-04-16T11:37:38.551Z,1017.97
2023-04-16T11:38:38.583Z,1018.02
2023-04-16T11:39:38.558Z,1018.02
2023-04-16T11:40:38.566Z,1018.03
2023-04-16T11:41:38.538Z,1018.00
2023-04-16T11:42:38.551Z,1018.00
2023-04-16T11:43:38.528Z,1018.00
2023-04-16T11:44:38.473Z,1018.02
2023-04-16T11:45:38.454Z,1018.01
2023-04-16T11:46:38.480Z,1018.06
2023-04-16T11:47:38.448Z,1018.04
2023-04-16T11:48:38.506Z,1018.05
2023-04-16T11:49:38.451Z,1018.04
2023-04-16T11:50:38.410Z,1018.03
2023-04-16T11:51:38.414Z,1018.03
2023-04-16T11:52:38.435Z,1018.04
2023-04-16T11:53:38.393Z,1018.07
2023-04-16T11:54:38.363Z,1018.08
2023-04-16T11:55:38.376Z,1018.08
2023-04-16T11:56:38.327Z,1018.10
2023-04-16T11:57:38.383Z,1018.08
2023-04-16T11:58:38.332Z,1018.09
2023-04-16T11:59:38.442Z,1018.08
2023-04-16T12:00:38.301Z,1018.08
2023-04-16T12:01:38.369Z,1018.09
2023-04-16T12:02:38.402Z,1018.08
2023-04-16T12:03:38.444Z,1018.11
2023-04-16T12:04:38.386Z,1018.10
2023-04-16T12:05:38.268Z,1018.12